createdAt,value
2022-11-28T00:00:31.432Z,13.57
2022-11-28T00:02:58.328Z,14.07
2022-11-28T00:05:25.153Z,13.68
2022-11-28T00:07:52.090Z,12.18
2022-11-28T00:10:19.061Z,10.70
2022-11-28T00:12:45.845Z,17.05
2022-11-28T00:15:12.785Z,12.70
2022-11-28T00:17:39.731Z,13.27
2022-11-28T00:20:07.200Z,11.93
2022-11-28T00:22:33.952Z,10.80
2022-11-28T00:25:00.869Z,12.90
2022-11-28T00:27:27.604Z,11.30
2022-11-28T00:29:55.116Z,11.93
2022-11-28T00:32:21.885Z,12.35
2022-11-28T00:34:48.678Z,13.63
2022-11-28T00:37:15.494Z,11.57
2022-11-28T00:39:42.226Z,11.88
2022-11-28T00:42:08.969Z,11.15
2022-11-28T00:44:35.898Z,13.57
2022-11-28T00:47:02.725Z,11.45
2022-11-28T00:49:29.504Z,10.60
2022-11-28T00:51:56.310Z,11.68
2022-11-28T00:54:23.088Z,11.68
2022-11-28T00:56:49.866Z,14.38
2022-11-28T00:59:16.577Z,12.35
2022-11-28T01:01:44.110Z,10.38
2022-11-28T01:04:14.703Z,11.60
2022-11-28T01:06:44.365Z,10.02
2022-11-28T01:09:14.603Z,12.15
2022-11-28T01:11:43.344Z,10.48
2022-11-28T01:14:11.576Z,8.98
2022-11-28T01:16:38.784Z,11.70
2022-11-28T01:19:06.151Z,9.35
2022-11-28T01:21:33.015Z,10.10
2022-11-28T01:23:59.874Z,8.40
2022-11-28T01:26:29.328Z,10.82
2022-11-28T01:28:56.691Z,8.63
2022-11-28T01:31:26.279Z,10.45
2022-11-28T01:33:53.381Z,9.38
2022-11-28T01:36:20.770Z,9.07
2022-11-28T01:38:48.757Z,10.38
2022-11-28T01:41:18.829Z,9.52
2022-11-28T01:44:03.714Z,11.88
2022-11-28T01:46:31.992Z,8.73
2022-11-28T01:49:06.157Z,9.05
2022-11-28T01:51:33.573Z,9.93
2022-11-28T01:54:01.023Z,9.45
2022-11-28T01:56:34.285Z,10.65
2022-11-28T01:59:07.055Z,8.43
2022-11-28T02:01:33.864Z,10.55
2022-11-28T02:04:00.632Z,10.00
2022-11-28T02:06:28.246Z,11.82
2022-11-28T02:08:56.112Z,9.60
2022-11-28T02:12:06.624Z,8.23
2022-11-28T02:15:03.782Z,7.78
2022-11-28T02:18:15.046Z,8.88
2022-11-28T02:21:00.359Z,9.77
2022-11-28T02:23:48.360Z,8.95
2022-11-28T02:26:43.666Z,8.50
2022-11-28T02:29:37.447Z,7.65
2022-11-28T02:32:30.857Z,8.75
2022-11-28T02:37:49.034Z,7.28
2022-11-28T02:40:24.113Z,8.88
2022-11-28T02:43:07.217Z,8.00
2022-11-28T02:45:48.683Z,11.38
2022-11-28T02:48:44.321Z,9.23
2022-11-28T02:51:18.602Z,8.60
2022-11-28T02:53:46.889Z,10.48
2022-11-28T02:56:13.817Z,11.50
2022-11-28T02:58:40.777Z,8.75
2022-11-28T03:01:19.184Z,8.82
2022-11-28T03:04:00.780Z,9.30
2022-11-28T03:06:45.868Z,9.65
2022-11-28T03:09:33.426Z,12.05
2022-11-28T03:12:15.515Z,9.60
2022-11-28T03:14:55.394Z,10.88
2022-11-28T03:17:39.633Z,8.32
2022-11-28T03:20:15.783Z,6.80
2022-11-28T03:22:42.481Z,9.15
2022-11-28T03:25:23.274Z,8.55
2022-11-28T03:28:02.177Z,9.57
2022-11-28T03:30:36.927Z,8.15
2022-11-28T03:33:05.501Z,9.73
2022-11-28T03:35:38.664Z,8.13
2022-11-28T03:38:09.979Z,7.88
2022-11-28T03:40:44.595Z,9.05
2022-11-28T03:43:21.201Z,8.20
2022-11-28T03:45:53.599Z,9.40
2022-11-28T03:48:27.258Z,8.15
2022-11-28T03:51:07.979Z,8.27
2022-11-28T03:53:56.015Z,8.13
2022-11-28T03:56:30.774Z,6.63
2022-11-28T03:59:06.933Z,9.93
2022-11-28T04:01:33.725Z,8.65
2022-11-28T04:04:10.425Z,6.28
2022-11-28T04:06:53.052Z,7.50
2022-11-28T04:09:32.106Z,9.05
2022-11-28T04:12:07.766Z,7.68
2022-11-28T04:14:45.373Z,8.63
2022-11-28T04:17:39.533Z,7.22
2022-11-28T04:20:16.660Z,9.23
2022-11-28T04:22:55.352Z,8.70
2022-11-28T04:25:24.737Z,9.75
2022-11-28T04:28:05.026Z,8.07
2022-11-28T04:30:33.026Z,8.05
2022-11-28T04:33:04.254Z,6.97
2022-11-28T04:35:49.430Z,6.82
2022-11-28T04:38:17.247Z,10.73
2022-11-28T04:41:01.526Z,8.70
2022-11-28T04:43:37.254Z,9.05
2022-11-28T04:46:18.535Z,7.25
2022-11-28T04:48:45.583Z,8.05
2022-11-28T04:51:23.308Z,8.88
2022-11-28T04:54:02.394Z,7.43
2022-11-28T04:56:36.760Z,7.57
2022-11-28T04:59:05.971Z,7.88
2022-11-28T05:01:33.819Z,7.95
2022-11-28T05:04:00.971Z,5.30
2022-11-28T05:06:34.062Z,7.05
2022-11-28T05:09:01.025Z,5.32
2022-11-28T05:11:28.481Z,6.07
2022-11-28T05:13:56.163Z,10.32
2022-11-28T05:16:23.711Z,7.95
2022-11-28T05:18:50.741Z,7.35
2022-11-28T05:21:17.514Z,8.27
2022-11-28T05:23:45.928Z,6.28
2022-11-28T05:26:20.062Z,6.07
2022-11-28T05:28:49.770Z,6.15
2022-11-28T05:31:18.401Z,7.75
2022-11-28T05:33:45.205Z,7.35
2022-11-28T05:36:13.991Z,9.43
2022-11-28T05:38:41.300Z,9.43
2022-11-28T05:41:08.604Z,6.03
2022-11-28T05:43:35.695Z,10.77
2022-11-28T05:46:05.869Z,9.80
2022-11-28T05:48:32.692Z,9.45
2022-11-28T05:50:59.498Z,6.43
2022-11-28T05:53:26.254Z,6.15
2022-11-28T05:55:52.971Z,8.25
2022-11-28T05:58:19.707Z,7.18
2022-11-28T06:00:46.454Z,7.95
2022-11-28T06:03:13.257Z,8.30
2022-11-28T06:05:43.437Z,7.20
2022-11-28T06:08:12.051Z,7.30
2022-11-28T06:10:39.042Z,5.82
2022-11-28T06:13:05.985Z,9.30
2022-11-28T06:15:37.860Z,7.00
2022-11-28T06:18:05.676Z,4.95
2022-11-28T06:20:34.865Z,6.72
2022-11-28T06:23:01.772Z,7.20
2022-11-28T06:25:29.075Z,6.70
2022-11-28T06:27:55.881Z,9.15
2022-11-28T06:30:22.669Z,9.18
2022-11-28T06:32:49.518Z,7.70
2022-11-28T06:35:16.415Z,7.47
2022-11-28T06:37:43.288Z,7.72
2022-11-28T06:40:10.144Z,5.95
2022-11-28T06:42:36.991Z,7.30
2022-11-28T06:45:04.704Z,6.03
2022-11-28T06:47:31.817Z,6.85
2022-11-28T06:49:58.548Z,8.57
2022-11-28T06:52:25.348Z,6.25
2022-11-28T06:54:52.276Z,6.13
2022-11-28T06:57:19.264Z,5.75
2022-11-28T07:10:43.115Z,6.38
2022-11-28T07:17:29.260Z,7.00
2022-11-28T07:20:09.724Z,6.50
2022-11-28T07:39:58.199Z,5.53
2022-11-28T07:47:24.674Z,6.60
2022-11-28T08:05:08.893Z,9.50
2022-11-28T08:24:14.907Z,6.78
2022-11-28T08:35:05.644Z,8.18
2022-11-28T08:38:01.969Z,8.07
2022-11-28T08:41:07.828Z,7.45
2022-11-28T08:48:26.854Z,6.97
2022-11-28T08:51:44.632Z,7.25
2022-11-28T08:55:35.572Z,7.85
2022-11-28T09:03:07.891Z,7.95
2022-11-28T09:05:35.099Z,8.98
2022-11-28T09:12:19.708Z,6.35
2022-11-28T09:22:57.244Z,8.48
2022-11-28T09:52:53.400Z,9.85
2022-11-28T09:59:32.864Z,6.40
2022-11-28T10:07:01.368Z,5.78
2022-11-28T10:09:52.800Z,7.68
2022-11-28T10:13:23.546Z,5.68
2022-11-28T10:16:27.137Z,9.23
2022-11-28T10:32:08.551Z,11.40
2022-11-28T10:59:21.579Z,7.10
2022-11-28T11:10:42.888Z,6.30
2022-11-28T11:17:43.565Z,7.05
2022-11-28T11:24:28.471Z,6.70
2022-11-28T11:27:07.238Z,4.43
2022-11-28T11:33:39.237Z,6.00
2022-11-28T11:37:29.049Z,7.50
2022-11-28T11:47:58.510Z,7.10
2022-11-28T11:50:36.810Z,8.57
2022-11-28T11:53:05.425Z,6.13
2022-11-28T11:56:01.057Z,6.68
2022-11-28T11:58:43.515Z,5.90
2022-11-28T12:01:22.057Z,6.77
2022-11-28T12:08:09.099Z,8.13
2022-11-28T12:14:44.045Z,7.97
2022-11-28T12:17:49.406Z,11.05
2022-11-28T12:25:09.150Z,6.90
2022-11-28T12:28:14.027Z,5.60
2022-11-28T12:46:19.718Z,4.15
2022-11-28T12:53:09.675Z,6.82
2022-11-28T13:12:49.153Z,4.97
2022-11-28T13:15:39.911Z,6.70
2022-11-28T13:18:52.827Z,7.15
2022-11-28T13:22:32.675Z,4.97
2022-11-28T13:25:21.147Z,6.15
2022-11-28T13:28:43.049Z,4.72
2022-11-28T13:44:20.583Z,4.00
2022-11-28T13:47:41.737Z,5.50
2022-11-28T13:55:27.380Z,3.97
2022-11-28T14:03:16.501Z,4.38
2022-11-28T14:06:54.048Z,4.63
2022-11-28T14:09:52.302Z,5.07
2022-11-28T14:12:36.915Z,4.68
2022-11-28T14:20:01.029Z,5.05
2022-11-28T14:27:41.850Z,6.25
2022-11-28T15:00:37.995Z,7.65
2022-11-28T15:04:14.865Z,9.18
2022-11-28T15:10:57.382Z,7.45
2022-11-28T15:14:37.666Z,8.05
2022-11-28T15:21:39.763Z,21.45
2022-11-28T15:24:42.189Z,37.17
2022-11-28T15:34:29.739Z,9.63
2022-11-28T15:41:29.577Z,8.30
2022-11-28T15:44:15.029Z,6.75
2022-11-28T15:47:18.912Z,6.60
2022-11-28T15:54:19.568Z,6.53
2022-11-28T15:57:35.777Z,10.87
2022-11-28T16:04:19.238Z,9.00
2022-11-28T16:11:04.518Z,8.38
2022-11-28T16:13:40.593Z,9.82
2022-11-28T16:17:08.266Z,10.23
2022-11-28T16:20:18.688Z,15.32
2022-11-28T16:23:50.803Z,8.70
2022-11-28T16:38:52.103Z,7.07
2022-11-28T16:41:34.412Z,10.48
2022-11-28T16:53:37.842Z,10.43
2022-11-28T17:01:21.867Z,13.00
2022-11-28T17:17:49.104Z,10.57
2022-11-28T17:21:09.442Z,8.57
2022-11-28T17:24:30.900Z,7.50
2022-11-28T17:31:14.018Z,17.02
2022-11-28T17:35:22.806Z,18.40
2022-11-28T17:41:35.570Z,14.27
2022-11-28T17:50:59.699Z,13.90
2022-11-28T18:01:22.828Z,9.32
2022-11-28T18:05:13.172Z,7.82
2022-11-28T18:07:46.254Z,10.45
2022-11-28T18:10:26.474Z,11.30
2022-11-28T18:13:48.818Z,9.52
2022-11-28T18:40:41.282Z,11.45
2022-11-28T18:53:23.574Z,14.35
2022-11-28T19:00:28.888Z,14.45
2022-11-28T19:03:51.243Z,14.70
2022-11-28T19:07:30.594Z,14.55
2022-11-28T19:22:44.634Z,23.50
2022-11-28T19:25:57.856Z,14.38
2022-11-28T19:33:27.788Z,14.30
2022-11-28T19:40:09.314Z,12.82
2022-11-28T19:43:04.518Z,16.80
2022-11-28T19:49:28.651Z,15.13
2022-11-28T19:52:13.543Z,16.52
2022-11-28T19:55:31.471Z,14.05
2022-11-28T20:08:14.566Z,14.83
2022-11-28T20:10:55.452Z,14.05
2022-11-28T20:24:05.167Z,11.60
2022-11-28T20:42:10.174Z,14.43
2022-11-28T21:00:58.654Z,14.60
2022-11-28T21:15:09.579Z,16.70
2022-11-28T21:21:01.318Z,11.50
2022-11-28T21:27:51.543Z,12.38
2022-11-28T21:33:56.767Z,17.02
2022-11-28T21:37:31.709Z,12.25
2022-11-28T21:43:54.765Z,13.82
2022-11-28T21:52:59.802Z,12.05
2022-11-28T21:56:19.983Z,13.02
2022-11-28T22:02:08.567Z,13.13
2022-11-28T22:04:49.476Z,15.60
2022-11-28T22:07:25.293Z,14.70
2022-11-28T22:10:24.525Z,14.27
2022-11-28T22:13:30.375Z,14.38
2022-11-28T22:24:54.410Z,14.30
2022-11-28T22:30:35.611Z,13.88
2022-11-28T22:33:35.236Z,13.85
2022-11-28T22:36:57.434Z,14.02
2022-11-28T22:39:24.562Z,15.55
2022-11-28T22:41:57.268Z,18.15
2022-11-28T22:45:19.944Z,15.82
2022-11-28T22:48:09.607Z,15.75
2022-11-28T22:50:56.611Z,17.05
2022-11-28T22:53:26.566Z,15.82
2022-11-28T22:55:53.695Z,12.43
2022-11-28T22:58:46.382Z,14.05
2022-11-28T23:01:17.280Z,12.40
2022-11-28T23:03:45.190Z,14.63
2022-11-28T23:06:15.385Z,14.00
2022-11-28T23:08:43.041Z,15.52
2022-11-28T23:11:15.765Z,14.85
2022-11-28T23:13:43.645Z,13.88
2022-11-28T23:16:16.481Z,16.92
2022-11-28T23:18:44.641Z,12.75
2022-11-28T23:21:13.129Z,13.30
2022-11-28T23:23:40.832Z,15.18
2022-11-28T23:26:10.638Z,15.07
2022-11-28T23:28:38.518Z,14.55
2022-11-28T23:31:27.142Z,15.25
2022-11-28T23:33:55.239Z,15.30
2022-11-28T23:36:28.402Z,14.80
2022-11-28T23:39:00.517Z,14.60
2022-11-28T23:41:28.590Z,14.70
2022-11-28T23:43:56.054Z,14.85
2022-11-28T23:46:24.525Z,14.23
2022-11-28T23:48:51.685Z,16.25
2022-11-28T23:51:21.233Z,15.40
2022-11-28T23:53:48.579Z,13.63
2022-11-28T23:56:22.189Z,14.30
2022-11-28T23:58:49.336Z,16.08
